Saybrook, IL (61770)

5:51 PM CDT on August 31, 2015 (GMT -0500)
APRSWXNET | | Change Station
CLOSE
Current Station
Personal Weather Station
Location: Arrowsmith, IL
Elevation: 862 ft
Nearby Weather Stations

Elev 862 ft 40.45 °N, 88.63 °W | Updated 30 minutes ago

Partly Cloudy
Partly Cloudy
84 °F
Feels Like 90 °F
N
1
Wind Variable Wind from South
Gusts 4.0 mph

Today
High -- | Low -- °F
--% Chance of Precip.
Yesterday
High -- | Low -- °F
Precip. -- in
6:20 AM 7:27 PM
Waning Gibbous, 93% visible
Pressure 29.99 in
Visibility 10.0 miles
Clouds Scattered Clouds 3300 ft
Heat Index 90 °F
Dew Point 73 °F
Humidity 69%
Rainfall in
Snow Depth Not available.
UV 2 out of 12
Pollen 10.30 out of 12
Air Quality Not available.
Flu Activity Not available.
METAR KBMI 312156Z 16009KT 10SM SCT033 31/23 A3003 RMK AO2 T03050227 SLP156
Pressure 29.99 in
Visibility 10.0 miles
Clouds Scattered Clouds 3300 ft
Heat Index 90 °F
Dew Point 73 °F
Humidity 69%
Rainfall in
Snow Depth Not available.
UV 2 out of 12
Pollen 10.30 out of 12
Air Quality Not available.
Flu Activity Not available.
METAR KBMI 312156Z 16009KT 10SM SCT033 31/23 A3003 RMK AO2 T03050227 SLP156

10-Day Weather Forecast

×

Almanac

Astronomy

Aug. 31, 2015 Rise Set
Actual Time
Civil Twilight
Nautical Twilight
Astronomical Twilight
Moon
Length of Visible Light
Length of Day
Tomorrow will be .
, % of the Moon is Illuminated

Today's Extremes

State Highs State Lows

Community

WunderPhotos

Upload Photos

1,851,390 photos uploaded!

WunderBlogs® & News

Nearby

Air Quality

  Air Quality AQ Index Pollutant
Not available.

Snow Depth

Station Depth Elevation

Earthquake Activity

City Distance Mag. Time & Date
Minimum magnitude displayed is 2.5.

Coastal Water Temperatures

Place Temperature

Stations

Nearby Weather Stations

Station Location Temp. Windchill Dew Point Humidity Wind Precip. Elev Updated Type